createdAt,value
2022-11-13T04:08:28.782Z,9.00
2022-11-13T04:11:15.701Z,9.00
2022-11-13T04:14:02.194Z,9.00
2022-11-13T04:16:48.727Z,9.10
2022-11-13T04:19:35.241Z,8.90
2022-11-13T04:22:21.714Z,9.00
2022-11-13T04:25:10.429Z,8.90
2022-11-13T04:27:56.851Z,9.00
2022-11-13T04:30:43.396Z,9.00
2022-11-13T04:33:29.957Z,8.90
2022-11-13T04:36:16.593Z,9.00
2022-11-13T04:39:03.376Z,9.00
2022-11-13T04:42:09.224Z,9.00
2022-11-13T04:44:56.019Z,9.00
2022-11-13T04:47:43.179Z,9.00
2022-11-13T04:50:29.795Z,9.00
2022-11-13T04:53:16.771Z,9.00
2022-11-13T04:56:04.412Z,9.00
2022-11-13T04:58:52.313Z,9.00
2022-11-13T05:01:38.780Z,8.90
2022-11-13T05:04:25.450Z,8.90
2022-11-13T05:07:13.045Z,8.90
2022-11-13T05:09:59.688Z,8.90
2022-11-13T05:12:46.210Z,9.00
2022-11-13T05:15:33.973Z,8.90
2022-11-13T05:18:20.480Z,8.90
2022-11-13T05:21:08.266Z,8.90
2022-11-13T05:23:55.118Z,8.90
2022-11-13T05:26:41.969Z,9.00
2022-11-13T05:29:28.731Z,8.90
2022-11-13T05:32:16.489Z,8.90
2022-11-13T05:35:03.093Z,8.80
2022-11-13T05:37:49.666Z,8.80
2022-11-13T05:40:36.342Z,8.90
2022-11-13T05:43:23.104Z,8.80
2022-11-13T05:46:15.438Z,8.80
2022-11-13T05:49:04.553Z,8.80
2022-11-13T05:51:51.397Z,8.80
2022-11-13T05:54:37.928Z,8.90
2022-11-13T05:57:24.757Z,8.80
2022-11-13T06:00:12.665Z,8.90
2022-11-13T06:03:00.910Z,8.90
2022-11-13T06:05:49.271Z,8.80
2022-11-13T06:08:36.412Z,8.90
2022-11-13T06:11:25.371Z,8.90
2022-11-13T06:14:12.275Z,8.90
2022-11-13T06:16:58.944Z,8.90
2022-11-13T06:19:45.491Z,9.00
2022-11-13T06:22:33.556Z,8.90
2022-11-13T06:25:20.076Z,9.00
2022-11-13T06:28:06.675Z,9.00
2022-11-13T06:30:53.542Z,9.00
2022-11-13T06:33:41.639Z,9.10
2022-11-13T06:36:30.491Z,9.10
2022-11-13T06:39:18.429Z,9.10
2022-11-13T06:42:06.506Z,9.10
2022-11-13T06:44:53.199Z,9.10
2022-11-13T06:47:40.100Z,9.10
2022-11-13T06:50:26.889Z,9.20
2022-11-13T06:53:13.343Z,9.10
2022-11-13T06:56:01.579Z,9.20
2022-11-13T06:58:48.496Z,9.20
2022-11-13T07:01:36.180Z,9.20
2022-11-13T07:04:23.116Z,9.20
2022-11-13T07:07:09.743Z,9.30
2022-11-13T07:09:57.243Z,9.20
2022-11-13T07:12:45.300Z,9.30
2022-11-13T07:15:36.190Z,9.20
2022-11-13T07:18:24.239Z,9.30
2022-11-13T07:21:13.187Z,9.30
2022-11-13T07:23:59.930Z,9.30
2022-11-13T07:26:47.534Z,9.30
2022-11-13T07:29:36.356Z,9.40
2022-11-13T07:32:23.106Z,9.40
2022-11-13T07:35:10.822Z,9.40
2022-11-13T07:37:57.553Z,9.40
2022-11-13T07:40:44.000Z,9.60
2022-11-13T07:43:30.737Z,9.50
2022-11-13T07:46:18.814Z,9.40
2022-11-13T07:49:05.639Z,9.50
2022-11-13T07:51:52.550Z,9.40
2022-11-13T07:54:39.364Z,9.60
2022-11-13T07:57:27.302Z,9.60
2022-11-13T08:00:15.302Z,9.60
2022-11-13T08:03:08.154Z,9.60
2022-11-13T08:06:00.527Z,9.40
2022-11-13T08:08:49.698Z,9.50
2022-11-13T08:11:36.615Z,9.50
2022-11-13T08:14:23.329Z,9.40
2022-11-13T08:17:09.987Z,9.40
2022-11-13T08:19:57.873Z,9.50
2022-11-13T08:22:45.554Z,9.50
2022-11-13T08:25:33.765Z,9.50
2022-11-13T08:28:20.490Z,9.50
2022-11-13T08:31:11.728Z,9.60
2022-11-13T08:33:58.475Z,9.50
2022-11-13T08:36:46.478Z,9.50
2022-11-13T08:39:35.478Z,9.60
2022-11-13T08:42:22.514Z,9.60
2022-11-13T08:45:15.304Z,9.60
2022-11-13T08:48:02.313Z,9.60
2022-11-13T08:50:52.735Z,9.60
2022-11-13T08:53:40.702Z,9.60
2022-11-13T08:56:27.250Z,9.70
2022-11-13T08:59:13.862Z,9.70
2022-11-13T09:02:00.501Z,9.70
2022-11-13T09:04:47.204Z,9.70
2022-11-13T09:07:33.756Z,9.70
2022-11-13T09:10:21.783Z,9.70
2022-11-13T09:13:09.737Z,9.70
2022-11-13T09:15:58.629Z,9.70
2022-11-13T09:18:45.132Z,9.70
2022-11-13T09:21:32.412Z,9.70
2022-11-13T09:24:19.421Z,9.70
2022-11-13T09:27:07.578Z,9.70
2022-11-13T09:29:55.722Z,9.70
2022-11-13T09:32:42.843Z,9.70
2022-11-13T09:35:35.463Z,9.80
2022-11-13T09:38:22.124Z,9.70
2022-11-13T09:41:12.503Z,9.70
2022-11-13T09:44:03.861Z,9.70
2022-11-13T09:46:53.564Z,9.60
2022-11-13T09:49:44.809Z,9.60
2022-11-13T09:52:34.877Z,9.60
2022-11-13T09:55:29.690Z,9.50
2022-11-13T09:58:25.412Z,9.50
2022-11-13T10:01:24.348Z,9.50
2022-11-13T10:04:15.611Z,9.50
2022-11-13T10:07:22.118Z,9.50
2022-11-13T10:10:55.159Z,9.50
2022-11-13T10:13:46.825Z,9.60
2022-11-13T10:16:40.345Z,9.60
2022-11-13T10:19:32.950Z,9.60
2022-11-13T10:22:32.843Z,9.60
2022-11-13T10:25:22.913Z,9.60
2022-11-13T10:28:48.109Z,9.60
2022-11-13T10:31:22.741Z,9.70
2022-11-13T10:34:11.617Z,9.70
2022-11-13T10:37:17.222Z,9.70
2022-11-13T10:40:04.517Z,9.60
2022-11-13T10:42:51.107Z,9.60
2022-11-13T10:45:37.677Z,9.60
2022-11-13T10:48:28.490Z,9.50
2022-11-13T10:51:25.637Z,9.60
2022-11-13T10:54:25.115Z,9.60
2022-11-13T10:57:28.901Z,9.60
2022-11-13T11:00:25.184Z,9.60
2022-11-13T11:03:16.730Z,9.70
2022-11-13T11:06:05.681Z,9.70
2022-11-13T11:08:53.711Z,9.80
2022-11-13T11:11:57.995Z,9.70
2022-11-13T11:14:58.166Z,9.80
2022-11-13T11:17:48.231Z,9.80
2022-11-13T11:20:44.644Z,9.80
2022-11-13T11:23:40.812Z,9.90
2022-11-13T11:26:36.775Z,9.90
2022-11-13T11:29:31.385Z,9.90
2022-11-13T11:32:24.201Z,9.90
2022-11-13T11:35:17.582Z,9.90
2022-11-13T11:38:11.226Z,9.80
2022-11-13T11:41:16.234Z,9.80
2022-11-13T11:44:15.117Z,9.80
2022-11-13T11:47:02.074Z,9.80
2022-11-13T11:49:49.091Z,9.80
2022-11-13T11:52:51.224Z,9.80
2022-11-13T11:55:59.849Z,9.80
2022-11-13T11:59:14.506Z,9.80
2022-11-13T12:02:38.554Z,9.70
2022-11-13T12:05:29.703Z,9.80
2022-11-13T12:08:30.363Z,9.90
2022-11-13T12:11:26.056Z,9.90
2022-11-13T12:14:22.408Z,10.00
2022-11-13T12:17:23.376Z,10.00
2022-11-13T12:20:20.265Z,10.00
2022-11-13T12:23:22.067Z,10.00
2022-11-13T12:26:16.595Z,10.00
2022-11-13T12:29:13.864Z,10.00
2022-11-13T12:32:10.658Z,10.10
2022-11-13T12:35:01.632Z,10.00
2022-11-13T12:37:53.718Z,10.00
2022-11-13T12:40:46.260Z,9.90
2022-11-13T12:43:49.024Z,9.90
2022-11-13T12:46:38.053Z,9.90
2022-11-13T12:49:32.086Z,9.90
2022-11-13T12:52:22.863Z,9.90
2022-11-13T12:55:26.786Z,9.80
2022-11-13T12:58:21.791Z,9.90
2022-11-13T13:01:18.641Z,9.90
2022-11-13T13:04:31.174Z,9.90
2022-11-13T13:07:30.084Z,9.90
2022-11-13T13:10:24.474Z,9.80
2022-11-13T13:13:23.885Z,9.80
2022-11-13T13:16:12.146Z,9.80
2022-11-13T13:19:09.074Z,9.80
2022-11-13T13:21:57.792Z,9.70
2022-11-13T13:24:44.256Z,9.70
2022-11-13T13:27:34.276Z,9.70
2022-11-13T13:30:25.252Z,9.70
2022-11-13T13:33:23.316Z,9.80
2022-11-13T13:36:20.905Z,9.70
2022-11-13T13:39:22.345Z,9.70
2022-11-13T13:42:22.666Z,9.70
2022-11-13T13:45:32.551Z,9.70
2022-11-13T13:48:22.917Z,9.70
2022-11-13T13:51:18.981Z,9.70
2022-11-13T13:54:14.884Z,9.60
2022-11-13T13:57:02.677Z,9.60
2022-11-13T13:59:51.634Z,9.60
2022-11-13T14:02:46.824Z,9.60
2022-11-13T14:05:35.408Z,9.70
2022-11-13T14:08:24.625Z,9.60
2022-11-13T14:11:21.067Z,9.70
2022-11-13T14:14:17.106Z,9.60
2022-11-13T14:17:06.045Z,9.60
2022-11-13T14:19:53.846Z,9.60
2022-11-13T14:22:43.725Z,9.60
2022-11-13T14:25:30.926Z,9.60
2022-11-13T14:28:22.614Z,9.50
2022-11-13T14:31:11.681Z,9.60
2022-11-13T14:34:02.861Z,9.60
2022-11-13T14:36:49.787Z,9.60
2022-11-13T14:39:36.602Z,9.60
2022-11-13T14:42:28.765Z,9.60
2022-11-13T14:45:19.804Z,9.50
2022-11-13T14:48:19.679Z,9.60
2022-11-13T14:51:08.265Z,9.50
2022-11-13T14:54:02.957Z,9.50
2022-11-13T14:56:53.927Z,9.50
2022-11-13T14:59:42.498Z,9.50
2022-11-13T15:02:30.745Z,9.50
2022-11-13T15:05:17.159Z,9.50
2022-11-13T15:08:03.697Z,9.50
2022-11-13T15:10:58.786Z,9.50
2022-11-13T15:13:46.516Z,9.50
2022-11-13T15:16:33.485Z,9.40
2022-11-13T15:19:28.506Z,9.50
2022-11-13T15:22:31.323Z,9.40
2022-11-13T15:25:19.810Z,9.40
2022-11-13T15:28:06.576Z,9.40
2022-11-13T15:30:53.573Z,9.40
2022-11-13T15:33:40.019Z,9.40
2022-11-13T15:36:28.256Z,9.40
2022-11-13T15:39:23.492Z,9.40
2022-11-13T15:42:15.926Z,9.40
2022-11-13T15:45:03.012Z,9.40
2022-11-13T15:47:49.620Z,9.40
2022-11-13T15:50:36.303Z,9.40
2022-11-13T15:53:24.205Z,9.40
2022-11-13T15:56:10.843Z,9.40
2022-11-13T15:58:57.417Z,9.40
2022-11-13T16:01:44.139Z,9.40
2022-11-13T16:04:50.843Z,9.40
2022-11-13T16:07:41.284Z,9.40
2022-11-13T16:10:30.212Z,9.40
2022-11-13T16:13:16.761Z,9.40
2022-11-13T16:16:03.504Z,9.40
2022-11-13T16:18:54.554Z,9.30
2022-11-13T16:21:44.445Z,9.30
2022-11-13T16:24:30.955Z,9.30
2022-11-13T16:27:25.803Z,9.30
2022-11-13T16:30:17.268Z,9.30
2022-11-13T16:33:05.912Z,9.30
2022-11-13T16:35:52.499Z,9.30
2022-11-13T16:38:39.237Z,9.40
2022-11-13T16:41:26.210Z,9.30
2022-11-13T16:44:14.203Z,9.30
2022-11-13T16:47:01.048Z,9.30
2022-11-13T16:49:47.817Z,9.30
2022-11-13T16:52:34.918Z,9.30
2022-11-13T16:55:21.521Z,9.30
2022-11-13T16:58:08.051Z,9.30
2022-11-13T17:01:00.011Z,9.30
2022-11-13T17:03:47.125Z,9.30
2022-11-13T17:06:35.565Z,9.30
2022-11-13T17:09:22.637Z,9.20
2022-11-13T17:12:09.605Z,9.20
2022-11-13T17:14:56.774Z,9.30
2022-11-13T17:17:44.963Z,9.30
2022-11-13T17:20:34.381Z,9.30
2022-11-13T17:23:21.447Z,9.30
2022-11-13T17:26:08.480Z,9.30
2022-11-13T17:28:55.723Z,9.30
2022-11-13T17:31:42.264Z,9.30
2022-11-13T17:34:30.242Z,9.10
2022-11-13T17:37:18.766Z,9.30
2022-11-13T17:40:08.592Z,9.30
2022-11-13T17:42:55.079Z,9.20
2022-11-13T17:45:41.858Z,9.20
2022-11-13T17:48:31.706Z,9.20
2022-11-13T17:51:20.297Z,9.30
2022-11-13T17:54:07.267Z,9.20
2022-11-13T17:56:54.351Z,9.20
2022-11-13T17:59:41.333Z,9.20
2022-11-13T18:02:28.281Z,9.10
2022-11-13T18:05:14.827Z,9.20
2022-11-13T18:08:02.794Z,9.20
2022-11-13T18:10:52.437Z,9.10
2022-11-13T18:13:39.517Z,9.20
2022-11-13T18:16:29.603Z,9.20
2022-11-13T18:19:16.198Z,9.20
2022-11-13T18:22:02.854Z,9.30
2022-11-13T18:24:50.728Z,9.10
2022-11-13T18:27:38.881Z,9.20
2022-11-13T18:30:25.517Z,9.20
2022-11-13T18:33:12.166Z,9.10
2022-11-13T18:35:58.677Z,9.10
2022-11-13T18:38:45.536Z,9.10
2022-11-13T18:41:35.805Z,9.10
2022-11-13T18:44:22.448Z,9.10
2022-11-13T18:47:09.018Z,9.10
2022-11-13T18:49:55.642Z,9.00
2022-11-13T18:52:42.209Z,9.00
2022-11-13T18:55:28.641Z,9.00
2022-11-13T18:58:17.487Z,9.00
2022-11-13T19:01:09.876Z,9.00
2022-11-13T19:04:21.829Z,9.00
2022-11-13T19:07:07.808Z,9.00
2022-11-13T19:09:54.883Z,9.00
2022-11-13T19:12:42.299Z,9.00
2022-11-13T19:15:30.643Z,9.00
2022-11-13T19:18:17.449Z,9.00
2022-11-13T19:21:09.055Z,9.10
2022-11-13T19:23:55.915Z,9.00
2022-11-13T19:26:43.033Z,9.10
2022-11-13T19:29:29.870Z,9.00
2022-11-13T19:32:17.803Z,9.00
2022-11-13T19:35:05.006Z,9.00
2022-11-13T19:37:57.655Z,9.00
2022-11-13T19:40:46.841Z,9.00
2022-11-13T19:43:34.440Z,9.00
2022-11-13T19:46:22.239Z,9.00
2022-11-13T19:49:10.391Z,9.00
2022-11-13T19:51:57.370Z,9.00
2022-11-13T19:54:45.179Z,9.00
2022-11-13T19:57:31.654Z,9.00
2022-11-13T20:00:19.512Z,9.00
2022-11-13T20:03:07.798Z,9.00
2022-11-13T20:05:59.416Z,9.10
2022-11-13T20:08:46.873Z,9.00
2022-11-13T20:11:34.082Z,9.10
2022-11-13T20:14:21.147Z,9.10
2022-11-13T20:17:07.984Z,8.90
2022-11-13T20:19:54.787Z,9.00
2022-11-13T20:22:42.663Z,9.00
2022-11-13T20:25:29.709Z,9.00
2022-11-13T20:28:16.560Z,9.00
2022-11-13T20:31:08.284Z,9.00
2022-11-13T20:33:56.947Z,8.90
2022-11-13T20:36:43.541Z,9.00
2022-11-13T20:39:31.700Z,9.00
2022-11-13T20:42:18.180Z,9.00
2022-11-13T20:45:05.375Z,9.00
2022-11-13T20:47:52.308Z,8.90
2022-11-13T20:50:39.229Z,9.00
2022-11-13T20:53:25.918Z,9.00
2022-11-13T20:56:14.598Z,9.00
2022-11-13T20:59:04.061Z,8.90
2022-11-13T21:01:50.737Z,8.80
2022-11-13T21:04:37.498Z,8.90
2022-11-13T21:07:24.226Z,8.90
2022-11-13T21:10:11.006Z,8.90
2022-11-13T21:12:59.259Z,8.80
2022-11-13T21:15:45.973Z,8.80
2022-11-13T21:18:32.877Z,8.80
2022-11-13T21:21:22.054Z,8.90
2022-11-13T21:24:08.974Z,8.80
2022-11-13T21:26:55.849Z,8.80
2022-11-13T21:29:43.713Z,8.90
2022-11-13T21:32:30.348Z,8.90
2022-11-13T21:35:22.321Z,8.80
2022-11-13T21:38:09.743Z,8.80
2022-11-13T21:41:14.237Z,8.80
2022-11-13T21:44:03.354Z,8.80
2022-11-13T21:46:51.684Z,8.80
2022-11-13T21:49:38.539Z,8.70
2022-11-13T21:52:25.167Z,8.70
2022-11-13T21:55:12.067Z,8.70
2022-11-13T21:57:58.949Z,8.70
2022-11-13T22:00:45.577Z,8.70
2022-11-13T22:03:33.754Z,8.70
2022-11-13T22:06:23.206Z,8.70
2022-11-13T22:09:15.396Z,8.70
2022-11-13T22:12:02.632Z,8.70
2022-11-13T22:14:49.562Z,8.70
2022-11-13T22:17:35.962Z,8.60
2022-11-13T22:20:23.917Z,8.60
2022-11-13T22:23:10.675Z,8.60
2022-11-13T22:26:04.219Z,8.60
2022-11-13T22:28:51.854Z,8.70
2022-11-13T22:31:39.151Z,8.70
2022-11-13T22:34:25.645Z,8.70
2022-11-13T22:37:13.628Z,8.70
2022-11-13T22:40:00.075Z,8.60
2022-11-13T22:42:46.639Z,8.60
2022-11-13T22:45:34.832Z,8.70
2022-11-13T22:48:21.350Z,8.60
2022-11-13T22:51:10.561Z,8.60
2022-11-13T22:54:00.690Z,8.70
2022-11-13T22:56:47.385Z,8.60
2022-11-13T22:59:33.944Z,8.60
2022-11-13T23:02:20.448Z,8.60
